EWG69R EDDS-EDDL
Flight info
| Callsign | EWG69R |
|---|---|
| Flight time | 0h 43m |
| Altitude | 23000 |
| Route | TAGIK2H TAGIK Z3 ABUMO N850 GISEM Z505 ARPEG Z850 ADEMI T854 DOMUX DOMUX1A |
| Aircraft | A320/M-SDE3FGHIRWY/LB1 |
Departure
| Time | 2026-04-30 18:55 |
|---|---|
| Airport | Stuttgart Airport (EDDS) |
Arrival
| Time | 2026-04-30 19:38 |
|---|---|
| Airport | Düsseldorf Airport (EDDL) |
| Time | Latitude | Longitude | Altitude | Speed | Heading |
|---|---|---|---|---|---|
| 2026-04-30 18:30 | 48.68795 | 9.19682 | 1304 ft | 0 kts | 163° |
| 2026-04-30 18:52 | 48.68793 | 9.19683 | 1304 ft | 2 kts | 163° |
| 2026-04-30 18:52 | 48.68758 | 9.19700 | 1302 ft | 9 kts | 160° |
| 2026-04-30 18:52 | 48.68748 | 9.19800 | 1298 ft | 13 kts | 74° |
| 2026-04-30 18:52 | 48.68759 | 9.19919 | 1294 ft | 10 kts | 106° |
| 2026-04-30 18:53 | 48.68722 | 9.19970 | 1291 ft | 2 kts | 162° |
| 2026-04-30 18:53 | 48.68702 | 9.19979 | 1290 ft | 5 kts | 162° |
| 2026-04-30 18:53 | 48.68683 | 9.19988 | 1289 ft | 3 kts | 163° |
| 2026-04-30 18:53 | 48.68652 | 9.20002 | 1286 ft | 10 kts | 163° |
| 2026-04-30 18:54 | 48.68583 | 9.20074 | 1285 ft | 14 kts | 90° |
| 2026-04-30 18:54 | 48.68622 | 9.20269 | 1278 ft | 30 kts | 73° |
| 2026-04-30 18:54 | 48.68750 | 9.20944 | 1270 ft | 101 kts | 74° |
| 2026-04-30 18:54 | 48.68998 | 9.22251 | 1248 ft | 155 kts | 74° |
| 2026-04-30 18:55 | 48.69292 | 9.23863 | 1795 ft | 161 kts | 75° |
| 2026-04-30 18:55 | 48.69904 | 9.27219 | 2991 ft | 178 kts | 76° |
| 2026-04-30 18:55 | 48.70268 | 9.29118 | 3372 ft | 196 kts | 76° |
| 2026-04-30 18:56 | 48.71113 | 9.33529 | 4296 ft | 236 kts | 76° |
| 2026-04-30 18:56 | 48.71579 | 9.35955 | 5127 ft | 244 kts | 77° |
| 2026-04-30 18:56 | 48.72062 | 9.38449 | 5962 ft | 250 kts | 76° |
| 2026-04-30 18:57 | 48.74039 | 9.42799 | 7583 ft | 272 kts | 30° |
| 2026-04-30 18:57 | 48.75868 | 9.43692 | 8426 ft | 281 kts | 14° |
| 2026-04-30 18:57 | 48.77839 | 9.43787 | 9263 ft | 290 kts | 352° |
| 2026-04-30 18:58 | 48.81552 | 9.41107 | 10883 ft | 304 kts | 333° |
| 2026-04-30 18:58 | 48.83486 | 9.39537 | 11171 ft | 326 kts | 336° |
| 2026-04-30 18:58 | 48.85605 | 9.37995 | 11376 ft | 349 kts | 338° |
| 2026-04-30 18:59 | 48.89740 | 9.33487 | 12244 ft | 381 kts | 313° |
| 2026-04-30 19:00 | 48.92609 | 9.22116 | 14263 ft | 400 kts | 280° |
| 2026-04-30 19:00 | 48.93049 | 9.17873 | 14913 ft | 402 kts | 280° |
| 2026-04-30 19:00 | 48.93940 | 9.09454 | 16112 ft | 409 kts | 281° |
| 2026-04-30 19:01 | 48.95305 | 9.01040 | 17227 ft | 412 kts | 299° |
| 2026-04-30 19:01 | 48.96920 | 8.97529 | 17741 ft | 410 kts | 317° |
| 2026-04-30 19:02 | 49.01803 | 8.93278 | 18818 ft | 404 kts | 351° |
| 2026-04-30 19:02 | 49.07357 | 8.93280 | 19804 ft | 402 kts | 8° |
| 2026-04-30 19:03 | 49.12949 | 8.94058 | 20794 ft | 406 kts | 8° |
| 2026-04-30 19:03 | 49.18598 | 8.94847 | 21750 ft | 410 kts | 8° |
| 2026-04-30 19:04 | 49.24317 | 8.95635 | 22675 ft | 415 kts | 8° |
| 2026-04-30 19:04 | 49.30095 | 8.96446 | 23298 ft | 420 kts | 8° |
| 2026-04-30 19:05 | 49.36069 | 8.97284 | 23330 ft | 439 kts | 8° |
| 2026-04-30 19:05 | 49.42180 | 8.98150 | 23328 ft | 442 kts | 8° |
| 2026-04-30 19:06 | 49.48315 | 8.99020 | 23331 ft | 443 kts | 8° |
| 2026-04-30 19:06 | 49.51386 | 8.99454 | 23335 ft | 443 kts | 8° |
| 2026-04-30 19:06 | 49.57533 | 9.00309 | 23337 ft | 443 kts | 8° |
| 2026-04-30 19:07 | 49.63632 | 9.01139 | 23320 ft | 443 kts | 8° |
| 2026-04-30 19:07 | 49.66702 | 9.01572 | 23313 ft | 443 kts | 8° |
| 2026-04-30 19:08 | 49.72844 | 9.02459 | 23320 ft | 443 kts | 8° |
| 2026-04-30 19:08 | 49.78997 | 9.03337 | 23321 ft | 444 kts | 8° |
| 2026-04-30 19:08 | 49.82071 | 9.03779 | 23328 ft | 444 kts | 8° |
| 2026-04-30 19:09 | 49.88230 | 9.04664 | 23324 ft | 444 kts | 7° |
| 2026-04-30 19:09 | 49.91330 | 9.04661 | 23327 ft | 448 kts | 358° |
| 2026-04-30 19:09 | 49.94415 | 9.03867 | 23333 ft | 452 kts | 349° |
| 2026-04-30 19:10 | 50.00365 | 9.00529 | 23337 ft | 455 kts | 342° |
| 2026-04-30 19:10 | 50.06288 | 8.97009 | 23343 ft | 456 kts | 342° |
| 2026-04-30 19:11 | 50.09246 | 8.95256 | 23338 ft | 456 kts | 342° |
| 2026-04-30 19:11 | 50.15215 | 8.92187 | 23338 ft | 451 kts | 352° |
| 2026-04-30 19:11 | 50.18312 | 8.91471 | 23344 ft | 450 kts | 356° |
| 2026-04-30 19:12 | 50.21418 | 8.90828 | 23347 ft | 450 kts | 355° |
| 2026-04-30 19:12 | 50.24517 | 8.90180 | 23350 ft | 450 kts | 355° |
| 2026-04-30 19:12 | 50.27625 | 8.89517 | 23357 ft | 450 kts | 355° |
| 2026-04-30 19:13 | 50.33836 | 8.88199 | 23357 ft | 450 kts | 356° |
| 2026-04-30 19:13 | 50.40056 | 8.86900 | 23360 ft | 450 kts | 356° |
| 2026-04-30 19:13 | 50.43169 | 8.86249 | 23363 ft | 450 kts | 356° |
| 2026-04-30 19:14 | 50.46271 | 8.85598 | 23374 ft | 450 kts | 356° |
| 2026-04-30 19:14 | 50.49380 | 8.84946 | 23373 ft | 450 kts | 356° |
| 2026-04-30 19:14 | 50.52481 | 8.84294 | 23375 ft | 450 kts | 356° |
| 2026-04-30 19:14 | 50.55588 | 8.83639 | 23369 ft | 450 kts | 356° |
| 2026-04-30 19:15 | 50.58685 | 8.82971 | 23380 ft | 450 kts | 354° |
| 2026-04-30 19:15 | 50.64609 | 8.79753 | 23385 ft | 460 kts | 335° |
| 2026-04-30 19:15 | 50.67285 | 8.76950 | 23381 ft | 465 kts | 325° |
| 2026-04-30 19:16 | 50.69758 | 8.73652 | 23381 ft | 466 kts | 323° |
| 2026-04-30 19:16 | 50.72228 | 8.70334 | 23382 ft | 466 kts | 323° |
| 2026-04-30 19:16 | 50.77178 | 8.63712 | 23386 ft | 466 kts | 323° |
| 2026-04-30 19:17 | 50.79658 | 8.60396 | 23384 ft | 466 kts | 323° |
| 2026-04-30 19:17 | 50.84607 | 8.53759 | 23393 ft | 466 kts | 323° |
| 2026-04-30 19:17 | 50.87075 | 8.50428 | 23393 ft | 466 kts | 323° |
| 2026-04-30 19:18 | 50.91173 | 8.44870 | 23374 ft | 467 kts | 322° |
| 2026-04-30 19:18 | 50.94441 | 8.40437 | 23364 ft | 467 kts | 322° |
| 2026-04-30 19:18 | 50.96944 | 8.37043 | 23366 ft | 468 kts | 322° |
| 2026-04-30 19:19 | 50.99421 | 8.33686 | 23363 ft | 468 kts | 322° |
| 2026-04-30 19:19 | 51.01973 | 8.30508 | 23359 ft | 465 kts | 329° |
| 2026-04-30 19:19 | 51.07522 | 8.25432 | 23369 ft | 463 kts | 334° |
| 2026-04-30 19:20 | 51.10338 | 8.22932 | 23376 ft | 463 kts | 334° |
| 2026-04-30 19:20 | 51.13146 | 8.20432 | 23378 ft | 463 kts | 334° |
| 2026-04-30 19:20 | 51.18772 | 8.15407 | 23373 ft | 463 kts | 334° |
| 2026-04-30 19:21 | 51.21580 | 8.12891 | 23371 ft | 463 kts | 334° |
| 2026-04-30 19:21 | 51.27189 | 8.07867 | 23362 ft | 463 kts | 333° |
| 2026-04-30 19:22 | 51.32804 | 8.02824 | 22401 ft | 460 kts | 333° |
| 2026-04-30 19:22 | 51.41068 | 7.95358 | 20122 ft | 449 kts | 334° |
| 2026-04-30 19:23 | 51.46554 | 7.83854 | 18048 ft | 453 kts | 278° |
| 2026-04-30 19:24 | 51.45549 | 7.74156 | 16605 ft | 446 kts | 250° |
| 2026-04-30 19:24 | 51.44619 | 7.69440 | 15935 ft | 442 kts | 252° |
| 2026-04-30 19:24 | 51.43011 | 7.60027 | 14710 ft | 433 kts | 254° |
| 2026-04-30 19:25 | 51.42069 | 7.45891 | 12763 ft | 422 kts | 270° |
| 2026-04-30 19:26 | 51.42119 | 7.36606 | 11489 ft | 413 kts | 269° |
| 2026-04-30 19:26 | 51.42134 | 7.27509 | 10461 ft | 399 kts | 269° |
| 2026-04-30 19:26 | 51.42074 | 7.23176 | 10319 ft | 380 kts | 262° |
| 2026-04-30 19:27 | 51.40601 | 7.15582 | 10018 ft | 332 kts | 237° |
| 2026-04-30 19:27 | 51.37926 | 7.10189 | 9913 ft | 299 kts | 221° |
| 2026-04-30 19:28 | 51.36966 | 7.08609 | 9880 ft | 299 kts | 221° |
| 2026-04-30 19:28 | 51.34058 | 7.03810 | 9238 ft | 296 kts | 221° |
| 2026-04-30 19:29 | 51.31229 | 6.99140 | 8583 ft | 292 kts | 221° |
| 2026-04-30 19:29 | 51.29818 | 6.96813 | 8255 ft | 291 kts | 221° |
| 2026-04-30 19:30 | 51.25631 | 6.89932 | 7302 ft | 285 kts | 221° |
| 2026-04-30 19:30 | 51.22883 | 6.85438 | 6672 ft | 279 kts | 221° |
| 2026-04-30 19:31 | 51.20258 | 6.80990 | 6009 ft | 273 kts | 228° |
| 2026-04-30 19:31 | 51.19122 | 6.78591 | 5689 ft | 269 kts | 228° |
| 2026-04-30 19:31 | 51.16938 | 6.73999 | 5027 ft | 248 kts | 227° |
| 2026-04-30 19:32 | 51.15926 | 6.71874 | 4694 ft | 240 kts | 227° |
| 2026-04-30 19:32 | 51.14909 | 6.69751 | 4367 ft | 239 kts | 227° |
| 2026-04-30 19:32 | 51.13903 | 6.67657 | 4049 ft | 237 kts | 226° |
| 2026-04-30 19:32 | 51.12944 | 6.65508 | 3713 ft | 242 kts | 237° |
| 2026-04-30 19:33 | 51.12541 | 6.62893 | 3493 ft | 248 kts | 268° |
| 2026-04-30 19:33 | 51.12965 | 6.60266 | 3337 ft | 245 kts | 301° |
| 2026-04-30 19:33 | 51.14032 | 6.58251 | 3282 ft | 233 kts | 326° |
| 2026-04-30 19:33 | 51.15387 | 6.57041 | 3271 ft | 222 kts | 347° |
| 2026-04-30 19:34 | 51.16887 | 6.56627 | 3206 ft | 212 kts | 8° |
| 2026-04-30 19:34 | 51.18276 | 6.56971 | 3090 ft | 194 kts | 26° |
| 2026-04-30 19:34 | 51.20283 | 6.59162 | 2687 ft | 162 kts | 59° |
| 2026-04-30 19:35 | 51.20938 | 6.60518 | 2492 ft | 147 kts | 61° |
| 2026-04-30 19:35 | 51.21537 | 6.61763 | 2300 ft | 137 kts | 61° |
| 2026-04-30 19:35 | 51.22105 | 6.62951 | 2124 ft | 133 kts | 62° |
| 2026-04-30 19:35 | 51.22660 | 6.64110 | 1941 ft | 131 kts | 60° |
| 2026-04-30 19:36 | 51.23203 | 6.65246 | 1769 ft | 130 kts | 60° |
| 2026-04-30 19:36 | 51.23759 | 6.66405 | 1574 ft | 130 kts | 60° |
| 2026-04-30 19:36 | 51.24851 | 6.68689 | 1228 ft | 129 kts | 59° |
| 2026-04-30 19:37 | 51.25400 | 6.69832 | 1042 ft | 130 kts | 59° |
| 2026-04-30 19:37 | 51.25948 | 6.70982 | 857 ft | 130 kts | 58° |
| 2026-04-30 19:37 | 51.26494 | 6.72128 | 693 ft | 130 kts | 55° |
| 2026-04-30 19:37 | 51.27042 | 6.73274 | 528 ft | 130 kts | 55° |
| 2026-04-30 19:38 | 51.27596 | 6.74435 | 353 ft | 132 kts | 53° |
| 2026-04-30 19:38 | 51.28147 | 6.75592 | 168 ft | 130 kts | 55° |
| 2026-04-30 19:38 | 51.28648 | 6.76647 | 131 ft | 99 kts | 52° |
| 2026-04-30 19:38 | 51.28950 | 6.77278 | 127 ft | 45 kts | 53° |
| 2026-04-30 19:39 | 51.29017 | 6.77528 | 127 ft | 14 kts | 109° |
| 2026-04-30 19:39 | 51.28968 | 6.77615 | 125 ft | 3 kts | 144° |
| 2026-04-30 19:39 | 51.28964 | 6.77620 | 126 ft | 0 kts | 144° |
| 2026-04-30 19:40 | 51.28939 | 6.77644 | 127 ft | 9 kts | 157° |
| 2026-04-30 19:40 | 51.28871 | 6.77577 | 127 ft | 16 kts | 232° |
| 2026-04-30 19:40 | 51.28804 | 6.77437 | 128 ft | 17 kts | 232° |
| 2026-04-30 19:41 | 51.28735 | 6.77293 | 126 ft | 17 kts | 232° |
| 2026-04-30 19:41 | 51.28656 | 6.77126 | 124 ft | 21 kts | 233° |
| 2026-04-30 19:41 | 51.28564 | 6.76934 | 127 ft | 22 kts | 233° |
| 2026-04-30 19:41 | 51.28482 | 6.76761 | 126 ft | 19 kts | 233° |
| 2026-04-30 19:42 | 51.28408 | 6.76605 | 124 ft | 17 kts | 233° |
| 2026-04-30 19:42 | 51.28342 | 6.76464 | 122 ft | 15 kts | 233° |
| 2026-04-30 19:42 | 51.28284 | 6.76344 | 125 ft | 13 kts | 233° |
| 2026-04-30 19:42 | 51.28228 | 6.76225 | 126 ft | 16 kts | 232° |
| 2026-04-30 19:43 | 51.28172 | 6.76108 | 128 ft | 11 kts | 232° |
| 2026-04-30 19:43 | 51.28118 | 6.76026 | 128 ft | 11 kts | 196° |
| 2026-04-30 19:43 | 51.28029 | 6.76048 | 130 ft | 15 kts | 184° |
| 2026-04-30 19:44 | 51.27848 | 6.76085 | 129 ft | 13 kts | 122° |
| 2026-04-30 19:44 | 51.27841 | 6.76222 | 130 ft | 11 kts | 88° |
| 2026-04-30 19:44 | 51.27872 | 6.76302 | 127 ft | 6 kts | 50° |
| 2026-04-30 19:44 | 51.27886 | 6.76328 | 129 ft | 1 kts | 50° |
| 2026-04-30 19:45 | 51.27888 | 6.76331 | 129 ft | 0 kts | 50° |